Time;durP1;ratioP1;P1;durP2;ratioP2;P2;SDS_P1;SDS_P2;PMS_P1;PMS_P2;Temp;Humidity;BMP_temperature;BMP_pressure;BME280_temperature;BME280_humidity;BME280_pressure;Samples;Min_cycle;Max_cycle;Signal;HPM_P1;HPM_P2
2022/07/22 00:02:13;;;;;;;;;;;16.40;99.90;;;;;;5053474;28;20264;-67
2022/07/22 00:04:38;;;;;;;;;;;16.50;99.90;;;;;;5053226;28;19963;-67
2022/07/22 00:07:04;;;;;;;;;;;16.50;99.90;;;;;;5052124;28;20003;-67
2022/07/22 00:09:29;;;;;;;;;;;16.50;99.90;;;;;;5053031;28;20363;-66
2022/07/22 00:11:55;;;;;;;;;;;16.50;99.90;;;;;;5053164;28;19944;-66
2022/07/22 00:14:21;;;;;;;;;;;16.50;99.90;;;;;;5053254;28;20021;-66
2022/07/22 00:16:46;;;;;;;;;;;16.50;99.90;;;;;;5053290;28;19948;-66
2022/07/22 00:19:12;;;;;;;;;;;16.50;99.90;;;;;;5053022;28;20379;-66
2022/07/22 00:21:38;;;;;;;;;;;16.50;99.90;;;;;;5052769;28;19927;-66
2022/07/22 00:24:04;;;;;;;;;;;16.50;99.90;;;;;;5051785;28;20364;-66
2022/07/22 00:26:29;;;;;;;;;;;16.50;99.90;;;;;;5052818;28;19909;-66
2022/07/22 00:28:55;;;;;;;;;;;16.50;99.90;;;;;;5053343;28;19913;-66
2022/07/22 00:31:20;;;;;;;;;;;16.50;99.90;;;;;;5055405;28;19932;-66
2022/07/22 00:33:46;;;;;;;;;;;16.50;99.90;;;;;;5056465;28;19909;-66
2022/07/22 00:36:11;;;;;;;;;;;16.50;99.90;;;;;;5056469;28;19916;-66
2022/07/22 00:38:37;;;;;;;;;;;16.50;99.90;;;;;;5056597;28;20287;-66
2022/07/22 00:41:03;;;;;;;;;;;16.50;99.90;;;;;;5056548;28;19963;-66
2022/07/22 00:43:47;;;;;;;;;;;16.50;99.90;;;;;;5056271;28;20375;-66
2022/07/22 00:46:13;;;;;;;;;;;16.50;99.90;;;;;;5056211;28;19909;-66
2022/07/22 00:48:38;;;;;;;;;;;16.50;99.90;;;;;;5056148;28;20279;-66
2022/07/22 00:51:04;;;;;;;;;;;16.50;99.90;;;;;;5056140;28;20046;-66
2022/07/22 00:53:29;;;;;;;;;;;16.40;99.90;;;;;;5056106;28;19915;-66
2022/07/22 00:55:55;;;;;;;;;;;16.40;99.90;;;;;;5056192;28;19920;-66
2022/07/22 00:58:21;;;;;;;;;;;16.40;99.90;;;;;;5038163;28;19909;-66
2022/07/22 01:00:47;;;;;;;;;;;16.40;99.90;;;;;;5054821;28;19908;-67
2022/07/22 01:03:13;;;;;;;;;;;16.40;99.90;;;;;;5054959;28;19920;-66
2022/07/22 01:05:39;;;;;;;;;;;16.40;99.90;;;;;;5056129;28;19909;-66
2022/07/22 01:08:05;;;;;;;;;;;16.40;99.90;;;;;;5055870;28;20323;-66
2022/07/22 01:10:31;;;;;;;;;;;16.40;99.90;;;;;;5055780;28;19909;-66
2022/07/22 01:12:56;;;;;;;;;;;16.30;99.90;;;;;;5056023;28;19915;-66
2022/07/22 01:15:21;;;;;;;;;;;16.30;99.90;;;;;;5055707;28;19963;-66
2022/07/22 01:17:47;;;;;;;;;;;16.30;99.90;;;;;;5055922;28;19931;-66
2022/07/22 01:20:12;;;;;;;;;;;16.30;99.90;;;;;;5055567;28;19908;-66
2022/07/22 01:22:38;;;;;;;;;;;16.30;99.90;;;;;;5055845;28;19936;-66
2022/07/22 01:25:04;;;;;;;;;;;16.30;99.90;;;;;;5055833;28;20272;-66
2022/07/22 01:27:29;;;;;;;;;;;16.40;99.90;;;;;;5055460;28;19909;-66
2022/07/22 01:29:55;;;;;;;;;;;16.40;99.90;;;;;;5055551;28;19920;-66
2022/07/22 01:32:20;;;;;;;;;;;16.30;99.90;;;;;;5037540;28;19913;-66
2022/07/22 01:34:46;;;;;;;;;;;16.30;99.90;;;;;;5055473;28;19916;-66
2022/07/22 01:37:11;;;;;;;;;;;16.30;99.90;;;;;;5055334;28;19909;-66
2022/07/22 01:39:37;;;;;;;;;;;16.30;99.90;;;;;;5055192;28;19948;-66
2022/07/22 01:42:02;;;;;;;;;;;16.30;99.90;;;;;;5055203;28;19919;-66
2022/07/22 01:44:30;;;;;;;;;;;16.20;99.90;;;;;;5037303;28;19909;-67
2022/07/22 01:46:55;;;;;;;;;;;16.30;99.90;;;;;;5055366;28;19913;-67
2022/07/22 01:49:21;;;;;;;;;;;16.20;99.90;;;;;;5055300;28;19908;-67
2022/07/22 01:51:46;;;;;;;;;;;16.20;99.90;;;;;;5055002;28;19909;-67
2022/07/22 01:54:12;;;;;;;;;;;16.20;99.90;;;;;;5054940;28;19955;-67
2022/07/22 01:56:37;;;;;;;;;;;16.10;99.90;;;;;;5055220;28;19909;-67
2022/07/22 01:59:03;;;;;;;;;;;16.10;99.90;;;;;;5054928;28;20008;-68
2022/07/22 02:01:29;;;;;;;;;;;16.10;99.90;;;;;;5054788;28;20293;-67
2022/07/22 02:03:54;;;;;;;;;;;16.10;99.90;;;;;;5054823;28;19913;-67
2022/07/22 02:06:20;;;;;;;;;;;16.10;99.90;;;;;;5054756;28;19967;-67
2022/07/22 02:08:45;;;;;;;;;;;16.10;99.90;;;;;;5054749;28;19916;-67
2022/07/22 02:11:11;;;;;;;;;;;16.00;99.90;;;;;;5054923;28;19991;-67
2022/07/22 02:13:36;;;;;;;;;;;16.00;99.90;;;;;;5054817;28;19916;-67
2022/07/22 02:16:02;;;;;;;;;;;16.00;99.90;;;;;;5054658;28;19909;-67
2022/07/22 02:18:28;;;;;;;;;;;16.00;99.90;;;;;;5054765;28;19909;-67
2022/07/22 02:20:53;;;;;;;;;;;15.90;99.90;;;;;;5054310;28;20011;-67
2022/07/22 02:23:19;;;;;;;;;;;16.00;99.90;;;;;;5054613;28;19913;-67
2022/07/22 02:25:44;;;;;;;;;;;16.00;99.90;;;;;;5054639;28;19956;-67
2022/07/22 02:28:10;;;;;;;;;;;16.00;99.90;;;;;;5054605;28;19913;-67
2022/07/22 02:30:35;;;;;;;;;;;15.90;99.90;;;;;;5054186;28;19962;-67
2022/07/22 02:33:01;;;;;;;;;;;15.90;99.90;;;;;;5054172;28;20011;-67
2022/07/22 02:35:27;;;;;;;;;;;15.90;99.90;;;;;;5054324;28;19916;-67
2022/07/22 02:37:52;;;;;;;;;;;15.90;99.90;;;;;;5054377;28;19916;-67
2022/07/22 02:40:17;;;;;;;;;;;15.90;99.90;;;;;;5054109;28;19916;-67
2022/07/22 02:42:43;;;;;;;;;;;15.80;99.90;;;;;;5054273;28;20054;-68
2022/07/22 02:45:09;;;;;;;;;;;15.80;99.90;;;;;;5054266;28;20283;-68
2022/07/22 02:47:34;;;;;;;;;;;15.90;99.90;;;;;;5054232;28;20571;-67
2022/07/22 02:50:00;;;;;;;;;;;15.90;99.90;;;;;;5053891;28;19995;-67
2022/07/22 02:52:25;;;;;;;;;;;15.90;99.90;;;;;;5053525;28;19909;-67
2022/07/22 02:54:51;;;;;;;;;;;15.90;99.90;;;;;;5054190;28;19909;-67
2022/07/22 02:57:16;;;;;;;;;;;15.80;99.90;;;;;;5053844;28;19916;-67
2022/07/22 02:59:42;;;;;;;;;;;15.90;99.90;;;;;;5054014;28;20344;-67
2022/07/22 03:02:07;;;;;;;;;;;15.90;99.90;;;;;;5053929;28;19919;-67
2022/07/22 03:04:33;;;;;;;;;;;15.90;99.90;;;;;;5052803;28;20417;-67
2022/07/22 03:06:58;;;;;;;;;;;15.90;99.90;;;;;;5053915;28;19952;-67
2022/07/22 03:09:24;;;;;;;;;;;15.80;99.90;;;;;;5053923;28;19909;-67
2022/07/22 03:11:49;;;;;;;;;;;15.90;99.90;;;;;;5053869;28;19915;-67
2022/07/22 03:14:16;;;;;;;;;;;15.80;99.90;;;;;;5053608;28;20294;-67
2022/07/22 03:16:41;;;;;;;;;;;15.90;99.90;;;;;;5053708;28;19909;-67
2022/07/22 03:19:07;;;;;;;;;;;15.90;99.90;;;;;;5053659;28;19917;-67
2022/07/22 03:21:32;;;;;;;;;;;15.80;99.90;;;;;;5053481;28;20003;-67
2022/07/22 03:23:58;;;;;;;;;;;15.80;99.90;;;;;;5053715;28;19956;-67
2022/07/22 03:26:23;;;;;;;;;;;15.80;99.90;;;;;;5053561;28;19913;-67
2022/07/22 03:28:49;;;;;;;;;;;15.80;99.90;;;;;;5053525;28;19916;-67
2022/07/22 03:31:14;;;;;;;;;;;15.80;99.90;;;;;;5053416;28;19916;-67
2022/07/22 03:33:40;;;;;;;;;;;15.80;99.90;;;;;;5053659;28;19916;-67
2022/07/22 03:36:06;;;;;;;;;;;15.80;99.90;;;;;;5053586;28;19966;-67
2022/07/22 03:38:33;;;;;;;;;;;15.80;99.90;;;;;;5053651;28;19913;-67
2022/07/22 03:40:58;;;;;;;;;;;15.80;99.90;;;;;;5053253;28;19915;-67
2022/07/22 03:43:24;;;;;;;;;;;15.80;99.90;;;;;;5052111;28;20282;-67
2022/07/22 03:45:49;;;;;;;;;;;15.80;99.90;;;;;;5053274;28;19916;-67
2022/07/22 03:48:14;;;;;;;;;;;15.80;99.90;;;;;;5053293;28;20410;-67
2022/07/22 03:50:40;;;;;;;;;;;15.70;99.90;;;;;;5053279;28;19909;-67
2022/07/22 03:53:05;;;;;;;;;;;15.80;99.90;;;;;;5035446;28;20000;-67
2022/07/22 03:55:31;;;;;;;;;;;15.80;99.90;;;;;;5053216;28;20008;-67
2022/07/22 03:57:56;;;;;;;;;;;15.70;99.90;;;;;;5053461;28;19909;-67
2022/07/22 04:00:22;;;;;;;;;;;15.80;99.90;;;;;;5053174;28;19909;-67
2022/07/22 04:02:47;;;;;;;;;;;15.80;99.90;;;;;;5053043;28;19952;-67
2022/07/22 04:05:13;;;;;;;;;;;15.80;99.90;;;;;;5057012;28;19909;-67
2022/07/22 04:07:38;;;;;;;;;;;15.70;99.90;;;;;;5057042;28;19909;-67
2022/07/22 04:10:04;;;;;;;;;;;15.80;99.90;;;;;;5056924;28;20372;-67
2022/07/22 04:12:32;;;;;;;;;;;15.80;99.90;;;;;;5039013;28;20375;-67
2022/07/22 04:14:57;;;;;;;;;;;15.80;99.90;;;;;;5055689;28;19912;-67
2022/07/22 04:17:23;;;;;;;;;;;15.80;99.90;;;;;;5056762;28;19915;-67
2022/07/22 04:19:48;;;;;;;;;;;15.80;99.90;;;;;;5056723;28;19913;-67
2022/07/22 04:22:14;;;;;;;;;;;15.80;99.90;;;;;;5056469;28;19920;-67
2022/07/22 04:24:39;;;;;;;;;;;15.90;99.90;;;;;;5056652;28;19909;-67
2022/07/22 04:27:05;;;;;;;;;;;15.90;99.90;;;;;;5055386;28;19913;-67
2022/07/22 04:29:30;;;;;;;;;;;15.80;99.90;;;;;;5056649;28;19951;-67
2022/07/22 04:31:56;;;;;;;;;;;15.80;99.90;;;;;;5056759;28;20334;-67
2022/07/22 04:34:22;;;;;;;;;;;15.90;99.90;;;;;;5056527;28;20019;-67
2022/07/22 04:36:47;;;;;;;;;;;15.80;99.90;;;;;;5056699;28;19966;-67
2022/07/22 04:39:12;;;;;;;;;;;15.90;99.90;;;;;;5056392;28;20394;-67
2022/07/22 04:41:38;;;;;;;;;;;15.90;99.90;;;;;;5056327;28;19920;-67
2022/07/22 04:44:03;;;;;;;;;;;15.90;99.90;;;;;;5056267;28;20390;-67
2022/07/22 04:46:29;;;;;;;;;;;15.90;99.90;;;;;;5056268;28;19944;-67
2022/07/22 04:48:55;;;;;;;;;;;15.80;99.90;;;;;;5056438;28;19919;-67
2022/07/22 04:51:20;;;;;;;;;;;15.90;99.90;;;;;;5056437;28;20004;-67
2022/07/22 04:53:46;;;;;;;;;;;15.90;99.90;;;;;;5054907;28;20385;-67
2022/07/22 04:56:11;;;;;;;;;;;15.80;99.90;;;;;;5056019;28;19916;-67
2022/07/22 04:58:37;;;;;;;;;;;15.80;99.90;;;;;;5054993;28;19959;-67
2022/07/22 05:01:02;;;;;;;;;;;15.80;99.90;;;;;;5055939;28;20390;-67
2022/07/22 05:03:27;;;;;;;;;;;15.90;99.90;;;;;;5056210;28;19909;-67
2022/07/22 05:05:53;;;;;;;;;;;15.90;99.90;;;;;;5056010;28;19913;-67
2022/07/22 05:08:18;;;;;;;;;;;15.80;99.90;;;;;;5056010;28;19909;-67
2022/07/22 05:10:44;;;;;;;;;;;15.80;99.90;;;;;;5056450;28;19959;-67
2022/07/22 05:13:11;;;;;;;;;;;15.80;99.90;;;;;;5054837;28;19916;-67
2022/07/22 05:15:37;;;;;;;;;;;15.70;99.90;;;;;;5037539;28;19909;-67
2022/07/22 05:18:02;;;;;;;;;;;15.60;99.90;;;;;;5055656;28;19909;-68
2022/07/22 05:20:28;;;;;;;;;;;15.60;99.90;;;;;;5055629;28;19909;-67
2022/07/22 05:22:53;;;;;;;;;;;15.60;99.90;;;;;;5055488;28;20286;-68
2022/07/22 05:25:19;;;;;;;;;;;15.70;99.90;;;;;;5055834;28;19912;-67
2022/07/22 05:27:49;;;;;;;;;;;15.70;99.90;;;;;;5055805;28;20007;-67
2022/07/22 05:30:14;;;;;;;;;;;15.70;99.90;;;;;;5055490;28;19909;-67
2022/07/22 05:32:40;;;;;;;;;;;15.80;99.90;;;;;;5055651;28;20011;-67
2022/07/22 05:35:05;;;;;;;;;;;15.80;99.90;;;;;;5055329;28;19966;-67
2022/07/22 05:37:31;;;;;;;;;;;15.80;99.90;;;;;;5055411;28;19991;-67
2022/07/22 05:39:56;;;;;;;;;;;15.90;99.90;;;;;;5055518;28;19955;-67
2022/07/22 05:42:22;;;;;;;;;;;15.90;99.90;;;;;;5055135;28;19912;-67
2022/07/22 05:44:47;;;;;;;;;;;15.80;99.90;;;;;;5055105;28;19908;-67
2022/07/22 05:47:13;;;;;;;;;;;15.90;99.90;;;;;;5055143;28;19909;-67
2022/07/22 05:49:38;;;;;;;;;;;15.80;99.90;;;;;;5055083;28;20000;-67
2022/07/22 05:52:04;;;;;;;;;;;15.80;99.90;;;;;;5055309;28;19909;-68
2022/07/22 05:54:29;;;;;;;;;;;15.80;99.90;;;;;;5055239;28;19909;-67
2022/07/22 05:56:55;;;;;;;;;;;15.90;99.90;;;;;;5055230;28;20409;-68
2022/07/22 05:59:20;;;;;;;;;;;15.80;99.90;;;;;;5055177;28;19937;-67
2022/07/22 06:01:46;;;;;;;;;;;15.90;99.90;;;;;;5067127;28;20354;-67
2022/07/22 06:04:11;;;;;;;;;;;15.90;99.90;;;;;;5054664;28;20003;-67
2022/07/22 06:06:37;;;;;;;;;;;16.00;99.90;;;;;;5087379;28;19936;-68
2022/07/22 06:09:02;;;;;;;;;;;15.90;99.90;;;;;;5060162;28;19909;-67
2022/07/22 06:11:28;;;;;;;;;;;15.90;99.90;;;;;;5077973;28;19951;-67
2022/07/22 06:13:53;;;;;;;;;;;15.90;99.90;;;;;;5073767;28;19908;-66
2022/07/22 06:16:19;;;;;;;;;;;15.90;99.90;;;;;;5074213;28;20007;-66
2022/07/22 06:18:44;;;;;;;;;;;16.00;99.90;;;;;;5074030;28;19952;-66
2022/07/22 06:21:10;;;;;;;;;;;16.00;99.90;;;;;;5070304;28;19930;-66
2022/07/22 06:23:35;;;;;;;;;;;16.00;99.90;;;;;;5051331;28;19960;-67
2022/07/22 06:26:01;;;;;;;;;;;16.10;99.90;;;;;;5072459;28;19908;-66
2022/07/22 06:28:27;;;;;;;;;;;16.10;99.90;;;;;;5073675;28;20313;-66
2022/07/22 06:30:52;;;;;;;;;;;16.20;99.90;;;;;;5073542;28;19908;-66
2022/07/22 06:33:18;;;;;;;;;;;16.10;99.90;;;;;;5052968;28;19912;-66
2022/07/22 06:35:43;;;;;;;;;;;16.20;99.90;;;;;;5056089;28;19931;-66
2022/07/22 06:38:09;;;;;;;;;;;16.20;99.90;;;;;;5074203;28;19915;-66
2022/07/22 06:40:34;;;;;;;;;;;16.30;99.90;;;;;;5071225;28;19974;-66
2022/07/22 06:43:00;;;;;;;;;;;16.40;99.90;;;;;;5074169;28;20456;-66
2022/07/22 06:45:26;;;;;;;;;;;16.50;99.90;;;;;;5068474;28;19917;-66
2022/07/22 06:47:51;;;;;;;;;;;16.60;99.90;;;;;;5064630;28;19913;-66
2022/07/22 06:50:17;;;;;;;;;;;16.70;99.90;;;;;;5054706;28;19967;-66
2022/07/22 06:52:43;;;;;;;;;;;16.70;99.90;;;;;;5072867;28;19919;-66
2022/07/22 06:55:09;;;;;;;;;;;16.90;99.90;;;;;;5055710;28;19915;-66
2022/07/22 06:57:34;;;;;;;;;;;16.90;99.90;;;;;;5050917;28;20006;-66
2022/07/22 07:00:00;;;;;;;;;;;17.00;99.90;;;;;;5073941;28;20354;-66
2022/07/22 07:02:25;;;;;;;;;;;17.10;99.90;;;;;;5072711;28;19917;-66
2022/07/22 07:04:51;;;;;;;;;;;17.20;99.90;;;;;;5070201;28;19909;-66
2022/07/22 07:07:16;;;;;;;;;;;17.40;99.90;;;;;;5073926;28;19959;-66
2022/07/22 07:09:42;;;;;;;;;;;17.30;99.90;;;;;;5073664;28;20489;-67
2022/07/22 07:12:07;;;;;;;;;;;17.30;99.90;;;;;;5072382;28;19920;-67
2022/07/22 07:14:33;;;;;;;;;;;17.30;99.90;;;;;;5068872;28;19920;-67
2022/07/22 07:16:58;;;;;;;;;;;17.40;99.90;;;;;;5053468;28;19909;-67
2022/07/22 07:19:24;;;;;;;;;;;17.70;99.90;;;;;;5057248;28;20341;-67
2022/07/22 07:21:49;;;;;;;;;;;17.90;99.90;;;;;;5073337;28;19921;-67
2022/07/22 07:24:15;;;;;;;;;;;17.90;99.90;;;;;;5072088;28;19913;-67
2022/07/22 07:26:40;;;;;;;;;;;17.90;99.90;;;;;;5072432;28;19915;-67
2022/07/22 07:29:06;;;;;;;;;;;18.10;99.90;;;;;;5065283;28;19913;-67
2022/07/22 07:31:31;;;;;;;;;;;18.30;99.90;;;;;;5057096;28;20359;-69
2022/07/22 07:33:57;;;;;;;;;;;18.30;99.90;;;;;;5056123;28;19955;-67
2022/07/22 07:36:22;;;;;;;;;;;18.40;99.90;;;;;;5053301;28;20382;-66
2022/07/22 07:38:48;;;;;;;;;;;18.50;99.90;;;;;;5073630;28;20003;-67
2022/07/22 07:41:13;;;;;;;;;;;18.40;99.90;;;;;;5077358;28;19909;-67
2022/07/22 07:43:39;;;;;;;;;;;18.40;99.90;;;;;;5066014;28;19912;-67
2022/07/22 07:46:04;;;;;;;;;;;18.30;99.90;;;;;;5065735;28;19954;-67
2022/07/22 07:48:30;;;;;;;;;;;18.20;99.90;;;;;;5064548;28;20059;-67
2022/07/22 07:50:55;;;;;;;;;;;18.30;99.90;;;;;;5057318;28;19919;-67
2022/07/22 07:53:21;;;;;;;;;;;18.40;99.90;;;;;;5057546;28;19909;-67
2022/07/22 07:55:46;;;;;;;;;;;18.40;99.90;;;;;;5060413;28;19999;-67
2022/07/22 07:58:12;;;;;;;;;;;18.60;99.90;;;;;;5049511;28;20061;-69
2022/07/22 08:00:39;;;;;;;;;;;18.60;99.90;;;;;;5039340;28;20009;-69
2022/07/22 08:03:05;;;;;;;;;;;18.40;99.90;;;;;;5064251;28;19982;-69
2022/07/22 08:05:30;;;;;;;;;;;18.50;99.90;;;;;;5056937;28;19915;-69
2022/07/22 08:07:56;;;;;;;;;;;18.10;99.90;;;;;;5056706;28;20015;-68
2022/07/22 08:10:22;;;;;;;;;;;18.00;99.90;;;;;;5068505;28;19966;-69
2022/07/22 08:12:48;;;;;;;;;;;17.70;99.90;;;;;;5074602;28;19958;-69
2022/07/22 08:15:14;;;;;;;;;;;17.60;99.90;;;;;;5057633;28;19909;-69
2022/07/22 08:17:39;;;;;;;;;;;17.60;99.90;;;;;;5072792;28;19999;-69
2022/07/22 08:20:05;;;;;;;;;;;17.70;99.90;;;;;;5070586;28;19966;-68
2022/07/22 08:22:31;;;;;;;;;;;17.60;99.90;;;;;;5039889;28;19924;-68
2022/07/22 08:24:57;;;;;;;;;;;17.70;99.90;;;;;;5062761;28;19917;-69
2022/07/22 08:27:22;;;;;;;;;;;17.70;99.90;;;;;;5038486;28;19942;-69
2022/07/22 08:29:48;;;;;;;;;;;17.80;99.90;;;;;;5070109;28;19913;-70
2022/07/22 08:32:13;;;;;;;;;;;17.80;99.90;;;;;;5076250;28;19908;-70
2022/07/22 08:34:39;;;;;;;;;;;17.70;99.90;;;;;;5076662;28;19916;-69
2022/07/22 08:37:04;;;;;;;;;;;17.70;99.90;;;;;;5072649;28;19916;-69
2022/07/22 08:39:30;;;;;;;;;;;17.90;99.90;;;;;;5051494;28;20417;-69
2022/07/22 08:41:56;;;;;;;;;;;17.90;99.90;;;;;;5074715;28;19924;-69
2022/07/22 08:44:22;;;;;;;;;;;18.10;99.90;;;;;;5070841;28;19915;-70
2022/07/22 08:46:47;;;;;;;;;;;18.10;99.90;;;;;;5056073;28;19940;-70
2022/07/22 08:49:14;;;;;;;;;;;18.20;99.90;;;;;;5055503;28;19909;-69
2022/07/22 08:51:39;;;;;;;;;;;18.20;99.90;;;;;;5056119;28;19909;-69
2022/07/22 08:54:05;;;;;;;;;;;18.20;99.90;;;;;;5056031;28;20436;-70
2022/07/22 08:56:30;;;;;;;;;;;18.30;99.90;;;;;;5056201;28;19967;-69
2022/07/22 08:58:56;;;;;;;;;;;18.40;99.90;;;;;;5065116;28;20298;-69
2022/07/22 09:01:21;;;;;;;;;;;18.50;99.90;;;;;;5057933;28;19909;-69
2022/07/22 09:03:49;;;;;;;;;;;18.40;99.90;;;;;;5041350;28;20370;-69
2022/07/22 09:06:15;;;;;;;;;;;18.50;99.90;;;;;;5057991;28;19908;-69
2022/07/22 09:08:57;;;;;;;;;;;18.50;99.90;;;;;;5057854;28;19969;-69
2022/07/22 09:11:24;;;;;;;;;;;18.50;99.90;;;;;;5075784;28;19909;-69
2022/07/22 09:13:50;;;;;;;;;;;18.70;99.90;;;;;;5057838;28;19908;-69
2022/07/22 09:16:16;;;;;;;;;;;18.80;99.90;;;;;;5057711;28;19912;-66
2022/07/22 09:18:45;;;;;;;;;;;19.00;99.90;;;;;;5057726;28;19908;-66
2022/07/22 09:21:11;;;;;;;;;;;18.90;99.90;;;;;;5075409;28;19986;-66
2022/07/22 09:23:39;;;;;;;;;;;18.80;99.90;;;;;;5075874;28;20359;-66
2022/07/22 09:26:04;;;;;;;;;;;18.70;99.90;;;;;;5075658;28;19941;-66
2022/07/22 09:28:30;;;;;;;;;;;18.90;99.90;;;;;;5056177;28;20407;-66
2022/07/22 09:30:55;;;;;;;;;;;18.90;99.90;;;;;;5067176;28;19999;-66
2022/07/22 09:33:21;;;;;;;;;;;18.50;99.90;;;;;;5055063;28;20274;-66
2022/07/22 09:35:49;;;;;;;;;;;18.40;99.90;;;;;;5055486;28;19908;-66
2022/07/22 09:38:16;;;;;;;;;;;18.40;99.90;;;;;;5054412;28;19909;-66
2022/07/22 09:40:43;;;;;;;;;;;18.40;99.90;;;;;;5055148;28;20387;-66
2022/07/22 09:43:12;;;;;;;;;;;18.40;99.90;;;;;;5055351;28;20350;-66
2022/07/22 09:45:57;;;;;;;;;;;18.60;99.90;;;;;;5054166;28;19915;-66
2022/07/22 09:48:23;;;;;;;;;;;18.50;99.90;;;;;;5054974;28;20367;-66
2022/07/22 09:50:50;;;;;;;;;;;18.50;99.90;;;;;;5055274;28;19916;-66
2022/07/22 09:53:16;;;;;;;;;;;18.40;99.90;;;;;;5055095;28;19909;-65
2022/07/22 09:55:42;;;;;;;;;;;18.30;99.90;;;;;;5065167;28;20384;-65
2022/07/22 09:58:07;;;;;;;;;;;18.30;99.90;;;;;;5070990;28;20007;-66
2022/07/22 10:00:33;;;;;;;;;;;18.40;99.90;;;;;;5073525;28;20366;-66
2022/07/22 10:03:00;;;;;;;;;;;18.60;99.90;;;;;;5074262;28;20286;-66
2022/07/22 10:05:28;;;;;;;;;;;18.90;99.90;;;;;;5074837;28;20382;-66
2022/07/22 10:07:54;;;;;;;;;;;19.00;99.90;;;;;;5074497;28;19958;-66
2022/07/22 10:10:21;;;;;;;;;;;18.70;99.90;;;;;;5073927;28;19909;-67
2022/07/22 10:12:49;;;;;;;;;;;18.70;99.90;;;;;;5069648;28;19970;-66
2022/07/22 10:15:15;;;;;;;;;;;18.70;99.90;;;;;;5069316;28;20329;-66
2022/07/22 10:17:43;;;;;;;;;;;18.70;99.90;;;;;;5066046;28;19962;-66
2022/07/22 10:20:09;;;;;;;;;;;18.70;99.90;;;;;;5050544;28;19908;-68
2022/07/22 10:22:45;;;;;;;;;;;18.60;99.90;;;;;;5055090;28;20289;-66
2022/07/22 10:25:11;;;;;;;;;;;18.50;99.90;;;;;;5072772;28;20000;-66
2022/07/22 10:27:57;;;;;;;;;;;18.60;99.90;;;;;;5073864;28;19908;-66
2022/07/22 10:30:24;;;;;;;;;;;18.70;99.90;;;;;;5072765;28;20330;-66
2022/07/22 10:33:11;;;;;;;;;;;18.60;99.90;;;;;;5074056;28;19931;-66
2022/07/22 10:35:38;;;;;;;;;;;18.60;99.90;;;;;;5055314;28;20337;-66
2022/07/22 10:38:05;;;;;;;;;;;18.70;99.90;;;;;;5070259;28;20320;-67
2022/07/22 10:40:32;;;;;;;;;;;18.70;99.90;;;;;;5067515;28;19916;-67
2022/07/22 10:43:00;;;;;;;;;;;18.80;99.90;;;;;;5045130;28;19919;-66
2022/07/22 10:45:26;;;;;;;;;;;18.80;99.90;;;;;;5073493;28;19920;-67
2022/07/22 10:47:53;;;;;;;;;;;19.00;99.90;;;;;;5072270;28;19908;-67
2022/07/22 10:53:14;;;;;;;;;;;19.20;99.90;;;;;;5071027;28;19935;-68
2022/07/22 10:56:00;;;;;;;;;;;19.40;99.90;;;;;;5071195;28;19917;-67
2022/07/22 10:58:42;;;;;;;;;;;19.50;99.90;;;;;;5070852;28;20367;-67
2022/07/22 11:01:09;;;;;;;;;;;19.60;99.90;;;;;;5070868;28;19909;-68
2022/07/22 11:03:35;;;;;;;;;;;19.60;99.90;;;;;;5059285;28;20399;-67
2022/07/22 11:06:21;;;;;;;;;;;19.70;99.90;;;;;;5066370;28;20383;-68
2022/07/22 11:08:47;;;;;;;;;;;19.70;99.90;;;;;;5069603;28;19958;-67
2022/07/22 11:11:13;;;;;;;;;;;19.70;99.90;;;;;;5050772;28;19940;-67
2022/07/22 11:13:39;;;;;;;;;;;19.90;99.90;;;;;;5069056;28;20371;-66
2022/07/22 11:16:22;;;;;;;;;;;19.90;99.90;;;;;;5055587;28;19928;-67
2022/07/22 11:18:58;;;;;;;;;;;20.00;99.90;;;;;;5070216;28;19940;-68
2022/07/22 11:21:24;;;;;;;;;;;20.10;99.90;;;;;;5064912;28;19917;-67
2022/07/22 11:23:51;;;;;;;;;;;20.20;99.90;;;;;;5063209;28;19920;-67
2022/07/22 11:26:19;;;;;;;;;;;19.80;99.90;;;;;;5068521;28;19913;-67
2022/07/22 11:28:45;;;;;;;;;;;19.80;99.90;;;;;;5069247;28;19912;-67
2022/07/22 11:31:13;;;;;;;;;;;19.90;99.90;;;;;;5085720;28;19913;-67
2022/07/22 11:33:39;;;;;;;;;;;19.80;99.90;;;;;;5063363;28;19920;-67
2022/07/22 11:36:05;;;;;;;;;;;20.00;99.90;;;;;;5050106;28;20003;-67
2022/07/22 11:38:47;;;;;;;;;;;20.30;99.90;;;;;;5055737;28;20470;-67
2022/07/22 11:41:13;;;;;;;;;;;20.30;99.90;;;;;;5056991;28;20398;-67
2022/07/22 11:43:43;;;;;;;;;;;20.30;99.90;;;;;;5070064;28;19908;-67
2022/07/22 11:46:08;;;;;;;;;;;20.10;99.90;;;;;;5067944;28;19956;-66
2022/07/22 11:48:34;;;;;;;;;;;20.50;99.90;;;;;;5069081;28;19924;-67
2022/07/22 11:51:01;;;;;;;;;;;20.30;99.90;;;;;;5071058;28;19916;-67
2022/07/22 11:53:26;;;;;;;;;;;20.30;99.90;;;;;;5090245;28;19905;-67
2022/07/22 11:55:56;;;;;;;;;;;20.00;99.90;;;;;;5089091;28;19954;-66
2022/07/22 11:58:41;;;;;;;;;;;19.70;99.90;;;;;;5087567;28;20314;-66
2022/07/22 12:01:08;;;;;;;;;;;19.70;99.90;;;;;;5073816;28;19909;-67
2022/07/22 12:03:35;;;;;;;;;;;19.60;99.90;;;;;;5066895;28;19916;-66
2022/07/22 12:06:02;;;;;;;;;;;19.80;99.90;;;;;;5056046;28;19909;-66
2022/07/22 12:08:27;;;;;;;;;;;20.10;99.90;;;;;;5056162;28;19908;-66
2022/07/22 12:10:54;;;;;;;;;;;20.50;99.90;;;;;;5056088;28;19913;-66
2022/07/22 12:13:20;;;;;;;;;;;20.80;99.90;;;;;;5065815;28;19958;-67
2022/07/22 12:15:46;;;;;;;;;;;21.20;99.90;;;;;;5073983;28;19916;-66
2022/07/22 12:18:15;;;;;;;;;;;21.10;99.90;;;;;;5074190;28;19916;-66
2022/07/22 12:20:44;;;;;;;;;;;21.00;99.90;;;;;;5071127;28;19956;-67
2022/07/22 12:23:10;;;;;;;;;;;20.80;99.90;;;;;;5082902;28;19912;-67
2022/07/22 12:25:49;;;;;;;;;;;20.60;99.90;;;;;;5095812;28;20314;-66
2022/07/22 12:28:14;;;;;;;;;;;20.80;99.90;;;;;;5095848;28;20368;-67
2022/07/22 12:30:41;;;;;;;;;;;20.50;99.90;;;;;;5095989;28;20002;-67
2022/07/22 12:33:12;;;;;;;;;;;20.30;99.90;;;;;;5095600;28;19912;-67
2022/07/22 12:35:38;;;;;;;;;;;20.20;99.90;;;;;;5095625;28;20267;-67
2022/07/22 12:38:06;;;;;;;;;;;20.10;99.90;;;;;;5077641;28;19916;-67
2022/07/22 12:40:31;;;;;;;;;;;20.10;99.90;;;;;;5095949;28;19920;-67
2022/07/22 12:43:03;;;;;;;;;;;20.30;99.90;;;;;;5095873;28;20405;-66
2022/07/22 12:45:29;;;;;;;;;;;20.20;99.90;;;;;;5096059;28;19908;-67
2022/07/22 12:48:04;;;;;;;;;;;20.40;99.90;;;;;;5095953;28;19914;-67
2022/07/22 12:50:31;;;;;;;;;;;20.10;99.90;;;;;;5095600;28;19908;-66
2022/07/22 12:52:59;;;;;;;;;;;19.90;99.90;;;;;;5095372;28;20370;-66
2022/07/22 12:55:25;;;;;;;;;;;19.90;99.90;;;;;;5077480;28;19931;-67
2022/07/22 12:57:51;;;;;;;;;;;19.80;99.90;;;;;;5095483;28;19908;-66
2022/07/22 13:00:19;;;;;;;;;;;20.10;99.90;;;;;;5095490;28;20430;-66
2022/07/22 13:02:45;;;;;;;;;;;20.10;99.90;;;;;;5095612;28;20013;-66
2022/07/22 13:05:10;;;;;;;;;;;20.10;99.90;;;;;;5095605;28;20365;-67
2022/07/22 13:07:35;;;;;;;;;;;20.00;99.90;;;;;;5077302;28;20003;-66
2022/07/22 13:10:01;;;;;;;;;;;20.10;99.90;;;;;;5095541;28;19912;-66
2022/07/22 13:12:27;;;;;;;;;;;20.30;99.90;;;;;;5095395;28;19912;-66
2022/07/22 13:14:52;;;;;;;;;;;20.30;99.90;;;;;;5094367;28;20417;-67
2022/07/22 13:17:19;;;;;;;;;;;20.30;99.90;;;;;;5095152;28;19908;-66
2022/07/22 13:19:44;;;;;;;;;;;20.40;99.90;;;;;;5095040;28;19908;-66
2022/07/22 13:22:11;;;;;;;;;;;20.40;99.90;;;;;;5076886;28;20503;-66
2022/07/22 13:24:36;;;;;;;;;;;20.40;99.90;;;;;;5094966;28;19908;-66
2022/07/22 13:27:02;;;;;;;;;;;20.40;99.90;;;;;;5076949;28;19908;-66
2022/07/22 13:29:27;;;;;;;;;;;20.30;99.90;;;;;;5095128;28;19908;-66
2022/07/22 13:31:53;;;;;;;;;;;20.40;99.90;;;;;;5094323;28;20014;-66
2022/07/22 13:34:18;;;;;;;;;;;20.30;99.90;;;;;;5095142;28;19907;-66
2022/07/22 13:36:44;;;;;;;;;;;20.30;99.90;;;;;;5094755;28;19909;-66
2022/07/22 13:39:10;;;;;;;;;;;20.40;99.90;;;;;;5094749;28;19908;-66
2022/07/22 13:41:35;;;;;;;;;;;20.50;99.90;;;;;;5094905;28;19915;-68
2022/07/22 13:44:00;;;;;;;;;;;20.90;99.90;;;;;;5094889;28;19958;-66
2022/07/22 13:46:26;;;;;;;;;;;21.00;99.90;;;;;;5094610;28;19908;-66
2022/07/22 13:48:52;;;;;;;;;;;21.20;99.90;;;;;;5094524;28;19948;-66
2022/07/22 13:51:18;;;;;;;;;;;21.40;99.90;;;;;;5094397;28;19974;-66
2022/07/22 13:53:44;;;;;;;;;;;21.50;99.90;;;;;;5094512;28;19912;-66
2022/07/22 13:56:10;;;;;;;;;;;21.50;99.90;;;;;;5094399;28;19908;-66
2022/07/22 13:58:35;;;;;;;;;;;21.50;99.90;;;;;;5094624;28;19915;-66
2022/07/22 14:01:01;;;;;;;;;;;21.60;99.90;;;;;;5094357;28;19993;-66
2022/07/22 14:03:26;;;;;;;;;;;21.70;99.90;;;;;;5094590;28;19908;-66
2022/07/22 14:05:52;;;;;;;;;;;22.00;99.90;;;;;;5094555;28;19915;-66
2022/07/22 14:08:17;;;;;;;;;;;21.90;99.90;;;;;;5076057;28;19915;-67
2022/07/22 14:10:43;;;;;;;;;;;22.00;99.90;;;;;;5094231;28;19943;-67
2022/07/22 14:13:08;;;;;;;;;;;22.20;99.90;;;;;;5094443;28;20317;-66
2022/07/22 14:15:34;;;;;;;;;;;22.10;99.90;;;;;;5094333;28;20412;-66